Time;durP1;ratioP1;P1;durP2;ratioP2;P2;SDS_P1;SDS_P2;PMS_P1;PMS_P2;Temp;Humidity;BMP_temperature;BMP_pressure;BME280_temperature;BME280_humidity;BME280_pressure;Samples;Min_cycle;Max_cycle;Signal;HPM_P1;HPM_P2
2023/03/25 00:00:48;;;;;;;19.42;9.15;;;;;;;;;;8438987;28;20127;-84
2023/03/25 00:05:02;;;;;;;15.15;7.40;;;;;;;;;;8434863;28;20480;-87
2023/03/25 00:09:05;;;;;;;13.68;7.25;;;;;;;;;;8408137;28;20037;-84
2023/03/25 00:13:08;;;;;;;12.43;5.85;;;;;;;;;;8417388;28;20058;-86
2023/03/25 00:17:12;;;;;;;10.90;6.20;;;;;;;;;;8409050;28;20138;-84
2023/03/25 00:21:17;;;;;;;9.95;5.80;;;;;;;;;;8404113;28;20048;-85
2023/03/25 00:25:21;;;;;;;9.07;5.00;;;;;;;;;;8408592;28;20472;-86
2023/03/25 00:29:24;;;;;;;8.95;5.10;;;;;;;;;;8405928;28;20054;-84
2023/03/25 00:33:27;;;;;;;9.23;5.18;;;;;;;;;;8400598;28;20044;-84
2023/03/25 00:37:31;;;;;;;9.13;4.82;;;;;;;;;;8416735;28;20068;-84
2023/03/25 00:41:35;;;;;;;8.18;4.70;;;;;;;;;;8409483;28;20162;-83
2023/03/25 00:45:38;;;;;;;8.85;4.22;;;;;;;;;;8414453;28;20058;-84
2023/03/25 00:49:41;;;;;;;8.10;4.35;;;;;;;;;;8432666;28;20052;-84
2023/03/25 00:53:46;;;;;;;7.03;3.40;;;;;;;;;;8431173;28;20055;-88
2023/03/25 00:57:49;;;;;;;7.68;3.40;;;;;;;;;;8420803;28;20052;-85
2023/03/25 01:01:55;;;;;;;4.10;2.30;;;;;;;;;;8424487;28;20052;-84
2023/03/25 01:05:57;;;;;;;3.80;2.30;;;;;;;;;;8432177;28;20055;-84
2023/03/25 01:10:02;;;;;;;4.38;2.20;;;;;;;;;;8432500;28;20044;-84
2023/03/25 01:14:06;;;;;;;5.45;2.67;;;;;;;;;;8423105;28;20492;-85
2023/03/25 01:18:09;;;;;;;6.53;2.78;;;;;;;;;;8427238;28;20047;-88
2023/03/25 01:22:12;;;;;;;8.02;3.03;;;;;;;;;;8417750;28;20132;-85
2023/03/25 01:26:16;;;;;;;10.70;3.50;;;;;;;;;;8376537;28;20037;-85
2023/03/25 01:30:19;;;;;;;8.73;3.25;;;;;;;;;;8389696;28;20056;-85
2023/03/25 01:34:23;;;;;;;9.77;3.05;;;;;;;;;;8405583;28;20066;-83
2023/03/25 01:38:26;;;;;;;11.77;3.30;;;;;;;;;;8419591;28;20476;-84
2023/03/25 01:42:31;;;;;;;8.40;3.13;;;;;;;;;;8410751;28;20102;-86
2023/03/25 01:46:34;;;;;;;7.53;2.65;;;;;;;;;;8404052;28;20407;-85
2023/03/25 01:50:41;;;;;;;4.47;2.00;;;;;;;;;;8425732;28;20059;-86
2023/03/25 01:54:45;;;;;;;6.30;2.30;;;;;;;;;;8408431;28;20131;-83
2023/03/25 01:58:51;;;;;;;5.05;2.60;;;;;;;;;;8405747;28;20043;-83
2023/03/25 02:02:58;;;;;;;4.85;2.60;;;;;;;;;;8430130;28;20480;-84
2023/03/25 02:07:02;;;;;;;3.28;1.85;;;;;;;;;;8429856;28;20127;-83
2023/03/25 02:11:06;;;;;;;7.03;2.33;;;;;;;;;;8429936;28;20071;-84
2023/03/25 02:15:10;;;;;;;4.07;2.20;;;;;;;;;;8411803;28;20041;-88
2023/03/25 02:19:45;;;;;;;4.53;2.35;;;;;;;;;;8390732;28;20143;-84
2023/03/25 02:24:14;;;;;;;5.80;2.42;;;;;;;;;;8403342;28;20044;-84
2023/03/25 02:28:28;;;;;;;4.13;2.25;;;;;;;;;;8400171;28;20052;-84
2023/03/25 02:32:50;;;;;;;6.45;2.70;;;;;;;;;;8379211;28;20136;-83
2023/03/25 02:37:26;;;;;;;5.18;2.80;;;;;;;;;;8420385;28;20040;-83
2023/03/25 02:41:38;;;;;;;4.07;2.60;;;;;;;;;;8383197;28;20044;-84
2023/03/25 02:45:46;;;;;;;4.93;2.80;;;;;;;;;;8425081;28;20518;-83
2023/03/25 02:49:54;;;;;;;4.18;2.50;;;;;;;;;;8417356;28;20056;-84
2023/03/25 02:54:01;;;;;;;5.63;2.95;;;;;;;;;;8406923;28;20044;-85
2023/03/25 02:58:08;;;;;;;3.70;2.35;;;;;;;;;;8378918;28;20044;-84
2023/03/25 03:02:16;;;;;;;5.25;2.80;;;;;;;;;;8380746;28;20048;-87
2023/03/25 03:06:19;;;;;;;4.63;2.72;;;;;;;;;;8404153;28;20075;-84
2023/03/25 03:10:26;;;;;;;3.35;2.30;;;;;;;;;;8390546;28;20049;-86
2023/03/25 03:14:41;;;;;;;5.47;2.60;;;;;;;;;;8392529;28;20044;-84
2023/03/25 03:18:56;;;;;;;7.75;6.88;;;;;;;;;;8380237;28;20123;-85
2023/03/25 03:23:05;;;;;;;5.25;2.97;;;;;;;;;;8386005;28;20481;-84
2023/03/25 03:27:13;;;;;;;5.93;3.30;;;;;;;;;;8397492;28;20119;-87
2023/03/25 03:31:23;;;;;;;8.15;3.30;;;;;;;;;;8391016;28;20451;-88
2023/03/25 03:35:31;;;;;;;7.45;4.80;;;;;;;;;;8419083;28;20141;-84
2023/03/25 03:39:36;;;;;;;7.45;4.60;;;;;;;;;;8421028;28;20455;-84
2023/03/25 03:43:45;;;;;;;12.45;6.47;;;;;;;;;;8406265;28;20396;-85
2023/03/25 03:47:54;;;;;;;18.83;9.25;;;;;;;;;;8400460;28;20040;-85
2023/03/25 03:51:59;;;;;;;19.45;10.80;;;;;;;;;;8418430;28;20097;-85
2023/03/25 03:56:07;;;;;;;8.65;4.03;;;;;;;;;;8391573;28;20041;-84
2023/03/25 04:00:16;;;;;;;8.02;3.65;;;;;;;;;;8416023;28;20047;-84
2023/03/25 04:04:22;;;;;;;4.80;3.05;;;;;;;;;;8428673;28;20040;-84
2023/03/25 04:08:30;;;;;;;9.00;5.80;;;;;;;;;;8410300;28;20303;-84
2023/03/25 04:12:37;;;;;;;10.40;6.43;;;;;;;;;;8413727;28;20048;-85
2023/03/25 04:16:44;;;;;;;7.53;4.82;;;;;;;;;;8402397;28;20044;-88
2023/03/25 04:20:49;;;;;;;8.60;3.58;;;;;;;;;;8422458;28;20043;-85
2023/03/25 04:24:55;;;;;;;5.88;3.15;;;;;;;;;;8420731;28;20738;-84
2023/03/25 04:28:59;;;;;;;5.35;3.30;;;;;;;;;;8416813;28;20051;-84
2023/03/25 04:33:01;;;;;;;6.25;3.80;;;;;;;;;;8417292;28;20040;-88
2023/03/25 04:37:06;;;;;;;8.23;3.65;;;;;;;;;;8414170;28;20050;-85
2023/03/25 04:41:10;;;;;;;5.55;3.08;;;;;;;;;;8428229;28;20050;-87
2023/03/25 04:45:15;;;;;;;4.95;3.15;;;;;;;;;;8417473;28;20111;-85
2023/03/25 04:49:20;;;;;;;4.18;2.85;;;;;;;;;;8420205;28;20054;-86
2023/03/25 04:53:26;;;;;;;7.40;5.00;;;;;;;;;;8401181;28;20048;-84
2023/03/25 04:57:30;;;;;;;14.95;8.18;;;;;;;;;;8404714;28;20401;-85
2023/03/25 05:01:36;;;;;;;11.68;5.18;;;;;;;;;;8419025;28;20055;-86
2023/03/25 05:05:39;;;;;;;10.38;5.10;;;;;;;;;;8380605;28;20098;-87
2023/03/25 05:09:43;;;;;;;12.60;5.53;;;;;;;;;;8425613;28;20048;-84
2023/03/25 05:13:46;;;;;;;11.35;4.90;;;;;;;;;;8399394;28;20048;-84
2023/03/25 05:17:49;;;;;;;10.05;4.55;;;;;;;;;;8389728;28;20055;-87
2023/03/25 05:21:55;;;;;;;6.40;3.80;;;;;;;;;;8412462;28;20043;-86
2023/03/25 05:25:59;;;;;;;11.65;6.00;;;;;;;;;;8401713;28;20436;-86
2023/03/25 05:30:02;;;;;;;10.80;5.80;;;;;;;;;;8416917;28;20483;-84
2023/03/25 05:34:05;;;;;;;12.32;6.63;;;;;;;;;;8414198;28;20068;-85
2023/03/25 05:38:11;;;;;;;12.60;6.07;;;;;;;;;;8426553;28;20040;-84
2023/03/25 05:42:15;;;;;;;7.93;4.68;;;;;;;;;;8403404;28;20135;-85
2023/03/25 05:46:18;;;;;;;10.88;5.85;;;;;;;;;;8410184;28;20040;-84
2023/03/25 05:50:21;;;;;;;8.82;5.20;;;;;;;;;;8413774;28;20385;-86
2023/03/25 05:54:24;;;;;;;8.35;5.25;;;;;;;;;;8404660;28;20465;-85
2023/03/25 05:58:31;;;;;;;8.25;5.10;;;;;;;;;;8402343;28;20048;-85
2023/03/25 06:02:37;;;;;;;8.20;4.93;;;;;;;;;;8409396;28;20051;-84
2023/03/25 06:06:40;;;;;;;10.95;5.00;;;;;;;;;;8411699;28;20430;-85
2023/03/25 06:10:44;;;;;;;11.90;5.90;;;;;;;;;;8414073;28;20048;-85
2023/03/25 06:14:52;;;;;;;8.95;5.07;;;;;;;;;;8406742;28;20048;-85
2023/03/25 06:18:58;;;;;;;8.23;5.05;;;;;;;;;;8387585;28;20508;-84
2023/03/25 06:23:02;;;;;;;10.75;4.35;;;;;;;;;;8399489;28;20040;-85
2023/03/25 06:27:06;;;;;;;7.15;4.22;;;;;;;;;;8397497;28;20047;-85
2023/03/25 06:31:15;;;;;;;7.00;4.10;;;;;;;;;;8407276;28;20045;-86
2023/03/25 06:35:20;;;;;;;10.60;5.10;;;;;;;;;;8383371;28;20067;-86
2023/03/25 06:39:23;;;;;;;11.07;5.78;;;;;;;;;;8386322;28;20044;-84
2023/03/25 06:43:26;;;;;;;11.88;6.30;;;;;;;;;;8398780;28;20055;-88
2023/03/25 06:47:31;;;;;;;16.85;6.47;;;;;;;;;;8405359;28;20094;-85
2023/03/25 06:51:34;;;;;;;9.90;5.53;;;;;;;;;;8428005;28;20372;-86
2023/03/25 06:55:37;;;;;;;12.95;6.03;;;;;;;;;;8411220;28;20052;-87
2023/03/25 06:59:40;;;;;;;8.23;5.05;;;;;;;;;;8419552;28;20458;-85
2023/03/25 07:03:45;;;;;;;10.48;4.80;;;;;;;;;;8417831;28;20052;-85
2023/03/25 07:07:48;;;;;;;47.00;17.80;;;;;;;;;;8392464;28;20040;-84
2023/03/25 07:11:51;;;;;;;8.88;4.43;;;;;;;;;;8385720;28;20045;-89
2023/03/25 07:15:55;;;;;;;8.48;4.60;;;;;;;;;;8379345;28;20056;-85
2023/03/25 07:19:59;;;;;;;7.47;4.63;;;;;;;;;;8402477;28;20059;-85
2023/03/25 07:24:02;;;;;;;9.93;4.85;;;;;;;;;;8409476;28;20097;-84
2023/03/25 07:28:06;;;;;;;21.88;7.45;;;;;;;;;;8426817;28;20407;-84
2023/03/25 07:32:08;;;;;;;17.65;6.43;;;;;;;;;;8413795;28;20044;-88
2023/03/25 07:36:14;;;;;;;12.98;5.60;;;;;;;;;;8418102;28;20119;-83
2023/03/25 07:40:17;;;;;;;11.63;5.30;;;;;;;;;;8429437;28;20639;-85
2023/03/25 07:44:21;;;;;;;10.30;4.82;;;;;;;;;;8434795;28;20056;-86
2023/03/25 07:48:24;;;;;;;8.15;4.20;;;;;;;;;;8434623;28;20059;-84
2023/03/25 07:52:28;;;;;;;7.57;3.78;;;;;;;;;;8435049;28;20044;-85
2023/03/25 07:56:32;;;;;;;5.95;4.13;;;;;;;;;;8433957;28;20047;-85
2023/03/25 08:00:35;;;;;;;10.38;3.97;;;;;;;;;;8410401;28;20060;-85
2023/03/25 08:04:38;;;;;;;7.60;3.72;;;;;;;;;;8394069;28;20131;-84
2023/03/25 08:08:43;;;;;;;6.60;3.70;;;;;;;;;;8391321;28;20044;-85
2023/03/25 08:12:46;;;;;;;6.45;3.60;;;;;;;;;;8426505;28;20399;-82
2023/03/25 08:16:49;;;;;;;6.55;3.70;;;;;;;;;;8422331;28;20040;-83
2023/03/25 08:20:53;;;;;;;7.20;3.70;;;;;;;;;;8434072;28;20131;-82
2023/03/25 08:24:58;;;;;;;7.60;3.38;;;;;;;;;;8433543;28;20040;-83
2023/03/25 08:29:01;;;;;;;8.07;4.80;;;;;;;;;;8429234;28;20498;-83
2023/03/25 08:33:06;;;;;;;7.57;3.85;;;;;;;;;;8432871;28;20135;-87
2023/03/25 08:37:09;;;;;;;8.43;4.28;;;;;;;;;;8425048;28;20044;-82
2023/03/25 08:41:13;;;;;;;6.70;3.00;;;;;;;;;;8433107;28;20123;-82
2023/03/25 08:45:16;;;;;;;10.55;3.33;;;;;;;;;;8432960;28;20109;-82
2023/03/25 08:49:19;;;;;;;7.35;4.05;;;;;;;;;;8417829;28;20047;-82
2023/03/25 08:53:22;;;;;;;7.47;2.90;;;;;;;;;;8432939;28;20074;-83
2023/03/25 08:57:27;;;;;;;8.75;3.13;;;;;;;;;;8432627;28;20048;-87
2023/03/25 09:01:30;;;;;;;6.80;3.67;;;;;;;;;;8400316;28;20045;-83
2023/03/25 09:05:33;;;;;;;9.57;3.17;;;;;;;;;;8394502;28;20100;-82
2023/03/25 09:09:37;;;;;;;8.27;3.28;;;;;;;;;;8432315;28;20054;-84
2023/03/25 09:13:42;;;;;;;4.80;2.50;;;;;;;;;;8405719;28;20048;-82
2023/03/25 09:17:45;;;;;;;5.47;2.80;;;;;;;;;;8412376;28;20129;-83
2023/03/25 09:21:48;;;;;;;6.28;3.28;;;;;;;;;;8392994;28;20087;-83
2023/03/25 09:25:51;;;;;;;8.25;4.05;;;;;;;;;;8400452;28;20048;-84
2023/03/25 09:29:56;;;;;;;8.18;3.30;;;;;;;;;;8429605;28;20554;-84
2023/03/25 09:33:59;;;;;;;7.80;3.40;;;;;;;;;;8431125;28;20044;-83
2023/03/25 09:38:03;;;;;;;8.15;3.20;;;;;;;;;;8430702;28;20118;-83
2023/03/25 09:42:22;;;;;;;7.35;2.88;;;;;;;;;;8419705;28;20050;-84
2023/03/25 09:46:28;;;;;;;6.13;2.50;;;;;;;;;;8395001;28;20076;-86
2023/03/25 09:50:34;;;;;;;4.72;2.38;;;;;;;;;;8424564;28;20480;-85
2023/03/25 09:54:41;;;;;;;7.00;2.70;;;;;;;;;;8403116;28;20051;-85
2023/03/25 09:58:46;;;;;;;7.13;2.65;;;;;;;;;;8389349;28;20123;-86
2023/03/25 10:03:00;;;;;;;8.27;2.50;;;;;;;;;;8386468;28;20056;-86
2023/03/25 10:07:12;;;;;;;5.75;2.85;;;;;;;;;;8375533;28;20123;-88
2023/03/25 10:11:23;;;;;;;6.05;2.08;;;;;;;;;;8383099;28;20568;-85
2023/03/25 10:15:33;;;;;;;5.90;2.00;;;;;;;;;;8381591;28;20045;-88
2023/03/25 10:19:50;;;;;;;6.93;2.53;;;;;;;;;;8377599;28;20686;-87
2023/03/25 10:24:03;;;;;;;5.30;2.28;;;;;;;;;;8385853;28;20043;-86
2023/03/25 10:28:07;;;;;;;5.80;2.22;;;;;;;;;;8372781;28;20048;-85
2023/03/25 10:32:18;;;;;;;5.55;2.20;;;;;;;;;;8389556;28;20055;-86
2023/03/25 10:36:30;;;;;;;7.30;1.80;;;;;;;;;;8379192;28;20052;-85
2023/03/25 10:40:38;;;;;;;6.95;1.88;;;;;;;;;;8370721;28;20769;-85
2023/03/25 10:44:42;;;;;;;8.88;2.80;;;;;;;;;;8388031;28;20062;-85
2023/03/25 10:48:47;;;;;;;6.45;2.70;;;;;;;;;;8376441;28;20044;-89
2023/03/25 10:52:54;;;;;;;7.75;3.45;;;;;;;;;;8381739;28;20052;-85
2023/03/25 10:57:01;;;;;;;12.98;5.32;;;;;;;;;;8388486;28;20040;-87
2023/03/25 11:01:12;;;;;;;8.93;5.03;;;;;;;;;;8379114;28;20052;-88
2023/03/25 11:05:19;;;;;;;11.27;4.80;;;;;;;;;;8385830;28;20080;-86
2023/03/25 11:09:29;;;;;;;8.95;4.25;;;;;;;;;;8391641;28;20052;-87
2023/03/25 11:13:32;;;;;;;20.75;13.02;;;;;;;;;;8367836;28;20072;-86
2023/03/25 11:17:35;;;;;;;12.50;7.47;;;;;;;;;;8373255;28;20049;-86
2023/03/25 11:21:39;;;;;;;8.55;3.80;;;;;;;;;;8374909;28;20044;-84
2023/03/25 11:25:44;;;;;;;7.57;3.47;;;;;;;;;;8380312;28;20045;-85
2023/03/25 11:29:53;;;;;;;11.40;4.75;;;;;;;;;;8389731;28;20492;-86
2023/03/25 11:34:19;;;;;;;9.27;3.85;;;;;;;;;;8390233;28;20044;-86
2023/03/25 11:38:31;;;;;;;8.38;4.30;;;;;;;;;;8386866;28;20551;-87
2023/03/25 11:42:48;;;;;;;;;;;;;;;;;;8362205;28;20044;-87
2023/03/25 11:46:54;;;;;;;6.47;2.60;;;;;;;;;;8337106;28;19925;-86
2023/03/25 11:51:00;;;;;;;6.32;2.47;;;;;;;;;;8353302;28;20067;-86
2023/03/25 11:55:04;;;;;;;7.47;2.50;;;;;;;;;;8345917;28;20048;-89
2023/03/25 11:59:23;;;;;;;6.40;2.30;;;;;;;;;;8343656;28;20049;-87
2023/03/25 12:03:29;;;;;;;10.25;2.30;;;;;;;;;;8357049;28;20101;-86
2023/03/25 12:07:46;;;;;;;5.47;2.13;;;;;;;;;;8344521;28;20502;-87
2023/03/25 12:12:02;;;;;;;6.70;2.70;;;;;;;;;;8348019;28;20083;-87
2023/03/25 12:16:20;;;;;;;6.55;2.70;;;;;;;;;;8338983;28;20053;-86
2023/03/25 12:20:32;;;;;;;5.05;2.47;;;;;;;;;;8342704;28;20103;-87
2023/03/25 12:24:50;;;;;;;4.45;2.13;;;;;;;;;;8349452;28;20037;-86
2023/03/25 12:29:20;;;;;;;7.22;3.28;;;;;;;;;;8354151;28;20052;-85
2023/03/25 12:33:37;;;;;;;2.28;1.75;;;;;;;;;;8344287;28;20052;-86
2023/03/25 12:37:59;;;;;;;2.92;1.42;;;;;;;;;;8351683;28;20489;-86
2023/03/25 12:42:06;;;;;;;;;;;;;;;;;;8350943;28;20068;-86
2023/03/25 12:46:20;;;;;;;6.38;2.20;;;;;;;;;;8335618;28;20003;-84
2023/03/25 12:50:37;;;;;;;9.10;2.30;;;;;;;;;;8347659;28;20061;-87
2023/03/25 12:54:52;;;;;;;6.43;3.03;;;;;;;;;;8354577;28;20127;-84
2023/03/25 12:59:11;;;;;;;7.55;4.47;;;;;;;;;;8343623;28;20135;-86
2023/03/25 13:03:43;;;;;;;9.82;5.75;;;;;;;;;;8340970;28;20073;-86
2023/03/25 13:07:52;;;;;;;14.38;8.27;;;;;;;;;;8331761;28;20064;-85
2023/03/25 13:12:00;;;;;;;8.23;4.22;;;;;;;;;;8353247;28;20052;-85
2023/03/25 13:16:08;;;;;;;7.05;3.75;;;;;;;;;;8356739;28;20115;-85
2023/03/25 13:20:13;;;;;;;10.13;3.95;;;;;;;;;;8357519;28;20552;-84
2023/03/25 13:24:21;;;;;;;23.52;8.55;;;;;;;;;;8369053;28;20059;-85
2023/03/25 13:28:29;;;;;;;8.32;3.80;;;;;;;;;;8344702;28;20054;-85
2023/03/25 13:32:46;;;;;;;11.20;5.60;;;;;;;;;;8355999;28;20412;-86
2023/03/25 13:37:00;;;;;;;7.07;3.50;;;;;;;;;;8359955;28;20497;-84
2023/03/25 13:41:13;;;;;;;8.40;3.92;;;;;;;;;;8334666;28;20457;-85
2023/03/25 13:45:18;;;;;;;13.30;4.70;;;;;;;;;;8330842;28;20050;-85
2023/03/25 13:49:29;;;;;;;7.82;2.88;;;;;;;;;;8355006;28;20118;-86
2023/03/25 13:53:36;;;;;;;9.00;3.35;;;;;;;;;;8348801;28;20045;-86
2023/03/25 13:58:08;;;;;;;8.38;3.20;;;;;;;;;;8342721;28;20041;-84
2023/03/25 14:02:32;;;;;;;5.13;3.03;;;;;;;;;;8326663;28;20136;-89
2023/03/25 14:07:15;;;;;;;6.10;2.88;;;;;;;;;;8347432;28;20057;-87
2023/03/25 14:11:26;;;;;;;3.78;2.70;;;;;;;;;;8338893;28;20076;-87
2023/03/25 14:15:36;;;;;;;5.15;2.60;;;;;;;;;;8342246;28;20414;-87
2023/03/25 14:19:42;;;;;;;4.95;2.60;;;;;;;;;;8341176;28;20041;-87
2023/03/25 14:23:47;;;;;;;6.15;3.15;;;;;;;;;;8357036;28;20068;-88
2023/03/25 14:27:52;;;;;;;6.40;3.35;;;;;;;;;;8350601;28;20045;-87
2023/03/25 14:32:07;;;;;;;5.43;2.63;;;;;;;;;;8359099;28;20131;-88
2023/03/25 14:36:11;;;;;;;12.00;2.83;;;;;;;;;;8354084;28;20075;-87
2023/03/25 14:40:50;;;;;;;5.78;2.67;;;;;;;;;;8361836;28;20561;-88
2023/03/25 14:44:54;;;;;;;10.18;3.35;;;;;;;;;;8348624;28;20557;-88
2023/03/25 14:49:19;;;;;;;8.30;3.22;;;;;;;;;;8342900;28;20068;-87
2023/03/25 14:53:25;;;;;;;7.18;3.33;;;;;;;;;;8344449;28;20387;-87
2023/03/25 14:57:43;;;;;;;59.15;25.52;;;;;;;;;;8347672;28;20478;-85
2023/03/25 15:01:54;;;;;;;14.18;6.13;;;;;;;;;;8348271;28;20755;-86
2023/03/25 15:06:08;;;;;;;8.32;4.90;;;;;;;;;;8351299;28;20501;-87
2023/03/25 15:10:26;;;;;;;8.82;5.32;;;;;;;;;;8345349;28;20057;-86
2023/03/25 15:14:36;;;;;;;9.55;4.85;;;;;;;;;;8345409;28;20049;-88
2023/03/25 15:18:59;;;;;;;31.73;17.77;;;;;;;;;;8356391;28;20052;-86
2023/03/25 15:23:40;;;;;;;59.78;23.20;;;;;;;;;;8346957;28;20044;-87
2023/03/25 15:28:08;;;;;;;29.50;11.10;;;;;;;;;;8337185;28;20061;-87
2023/03/25 15:32:45;;;;;;;16.42;9.80;;;;;;;;;;8348034;28;20519;-85
2023/03/25 15:37:21;;;;;;;13.15;5.65;;;;;;;;;;8339155;28;20129;-87
2023/03/25 15:42:00;;;;;;;15.18;5.45;;;;;;;;;;8321171;28;20050;-86
2023/03/25 15:46:42;;;;;;;14.90;6.25;;;;;;;;;;8346420;28;20575;-86
2023/03/25 15:51:17;;;;;;;15.98;7.55;;;;;;;;;;8366383;28;20132;-86
2023/03/25 15:55:24;;;;;;;10.95;5.63;;;;;;;;;;8341104;28;20068;-87
2023/03/25 15:59:37;;;;;;;15.30;7.10;;;;;;;;;;8349677;28;20155;-86
2023/03/25 16:03:44;;;;;;;18.35;8.98;;;;;;;;;;8362632;28;20052;-88
2023/03/25 16:07:48;;;;;;;19.67;11.32;;;;;;;;;;8358645;28;20045;-85
2023/03/25 16:11:52;;;;;;;15.93;8.63;;;;;;;;;;8354138;28;20044;-85
2023/03/25 16:15:58;;;;;;;13.95;7.93;;;;;;;;;;8353955;28;20425;-85
2023/03/25 16:20:09;;;;;;;21.23;9.57;;;;;;;;;;8352162;28;20045;-89
2023/03/25 16:24:14;;;;;;;7.80;2.67;;;;;;;;;;8362819;28;20044;-87
2023/03/25 16:28:22;;;;;;;12.32;5.70;;;;;;;;;;8357245;28;20068;-87
2023/03/25 16:32:31;;;;;;;11.38;5.38;;;;;;;;;;8355522;28;20037;-85
2023/03/25 16:36:37;;;;;;;7.25;3.78;;;;;;;;;;8358506;28;20073;-85
2023/03/25 16:40:42;;;;;;;3.38;2.65;;;;;;;;;;8347961;28;20049;-85
2023/03/25 16:44:47;;;;;;;7.90;4.55;;;;;;;;;;8370466;28;20052;-86
2023/03/25 16:48:57;;;;;;;6.05;3.72;;;;;;;;;;8337663;28;20505;-85
2023/03/25 16:53:02;;;;;;;7.07;3.95;;;;;;;;;;8355476;28;20037;-85
2023/03/25 16:57:11;;;;;;;18.33;9.80;;;;;;;;;;8354002;28;20045;-86
2023/03/25 17:01:22;;;;;;;17.30;9.90;;;;;;;;;;8354667;28;20071;-85
2023/03/25 17:05:31;;;;;;;23.92;12.80;;;;;;;;;;8349068;28;20099;-85
2023/03/25 17:09:41;;;;;;;19.10;10.20;;;;;;;;;;8358664;28;20519;-85
2023/03/25 17:13:50;;;;;;;32.22;18.40;;;;;;;;;;8341474;28;20060;-85
2023/03/25 17:17:59;;;;;;;31.38;18.80;;;;;;;;;;8350662;28;20042;-87
2023/03/25 17:22:16;;;;;;;28.48;17.23;;;;;;;;;;8326395;28;20107;-86
2023/03/25 17:26:25;;;;;;;19.38;10.15;;;;;;;;;;8347125;28;20049;-85
2023/03/25 17:30:41;;;;;;;11.20;7.25;;;;;;;;;;8349988;28;20048;-87
2023/03/25 17:34:45;;;;;;;26.17;13.60;;;;;;;;;;8342837;28;20045;-85
2023/03/25 17:38:52;;;;;;;29.77;15.00;;;;;;;;;;8355049;28;20060;-86
2023/03/25 17:42:59;;;;;;;37.33;15.45;;;;;;;;;;8351063;28;20485;-85
2023/03/25 17:47:03;;;;;;;32.00;14.27;;;;;;;;;;8346906;28;20072;-86
2023/03/25 17:51:08;;;;;;;28.92;12.80;;;;;;;;;;8346758;28;20751;-85
2023/03/25 17:55:15;;;;;;;17.40;9.02;;;;;;;;;;8350664;28;20090;-88
2023/03/25 17:59:23;;;;;;;20.95;10.50;;;;;;;;;;8336289;28;20448;-84
2023/03/25 18:03:31;;;;;;;20.20;11.75;;;;;;;;;;8360269;28;20234;-87
2023/03/25 18:07:40;;;;;;;21.38;11.82;;;;;;;;;;8337665;28;20045;-87
2023/03/25 18:11:45;;;;;;;24.88;13.35;;;;;;;;;;8362721;28;20072;-85
2023/03/25 18:15:51;;;;;;;31.73;14.52;;;;;;;;;;8356714;28;20053;-86
2023/03/25 18:19:57;;;;;;;34.17;16.20;;;;;;;;;;8340176;28;20049;-85
2023/03/25 18:24:05;;;;;;;23.30;12.55;;;;;;;;;;8379808;28;20131;-85
2023/03/25 18:28:11;;;;;;;26.05;15.50;;;;;;;;;;8346419;28;20765;-86
2023/03/25 18:32:20;;;;;;;19.65;10.13;;;;;;;;;;8361675;28;20169;-87
2023/03/25 18:36:26;;;;;;;17.65;8.57;;;;;;;;;;8349885;28;20041;-86
2023/03/25 18:40:35;;;;;;;18.70;10.00;;;;;;;;;;8338846;28;20413;-85
2023/03/25 18:44:40;;;;;;;20.48;9.55;;;;;;;;;;8363027;28;20616;-86
2023/03/25 18:48:45;;;;;;;18.88;10.55;;;;;;;;;;8358670;28;20057;-85
2023/03/25 18:52:50;;;;;;;19.95;10.48;;;;;;;;;;8358438;28;20053;-85
2023/03/25 18:56:55;;;;;;;25.15;11.80;;;;;;;;;;8357676;28;20040;-85
2023/03/25 19:01:06;;;;;;;22.83;11.40;;;;;;;;;;8358685;28;20044;-85
2023/03/25 19:05:17;;;;;;;18.75;9.27;;;;;;;;;;8322727;28;20049;-85
2023/03/25 19:09:23;;;;;;;24.80;10.57;;;;;;;;;;8341084;28;20042;-86
2023/03/25 19:13:27;;;;;;;24.95;11.63;;;;;;;;;;8350064;28;20041;-86
2023/03/25 19:17:36;;;;;;;29.20;13.15;;;;;;;;;;8334133;28;20057;-85
2023/03/25 19:21:44;;;;;;;25.83;13.02;;;;;;;;;;8335632;28;20481;-85
2023/03/25 19:25:56;;;;;;;30.10;15.20;;;;;;;;;;8346683;28;20136;-86
2023/03/25 19:30:04;;;;;;;25.67;12.27;;;;;;;;;;8343040;28;20047;-86
2023/03/25 19:34:12;;;;;;;22.95;11.15;;;;;;;;;;8351702;28;20041;-87
2023/03/25 19:38:24;;;;;;;35.75;10.45;;;;;;;;;;8338350;28;20051;-86
2023/03/25 19:42:30;;;;;;;18.00;7.93;;;;;;;;;;8362451;28;20483;-87
2023/03/25 19:46:34;;;;;;;17.02;8.55;;;;;;;;;;8340821;28;20626;-86
2023/03/25 19:50:41;;;;;;;15.43;8.13;;;;;;;;;;8355759;28;20055;-87
2023/03/25 19:54:50;;;;;;;35.67;7.03;;;;;;;;;;8364838;28;20489;-86
2023/03/25 19:58:53;;;;;;;14.73;6.97;;;;;;;;;;8396426;28;20040;-87
2023/03/25 20:03:00;;;;;;;81.93;9.65;;;;;;;;;;8361348;28;20057;-86
2023/03/25 20:07:04;;;;;;;50.13;7.75;;;;;;;;;;8377378;28;20511;-85
2023/03/25 20:11:12;;;;;;;83.90;23.65;;;;;;;;;;8400362;28;20044;-86
2023/03/25 20:15:21;;;;;;;33.13;15.73;;;;;;;;;;8372880;28;20071;-85
2023/03/25 20:19:25;;;;;;;26.55;13.52;;;;;;;;;;8387462;28;20049;-86
2023/03/25 20:23:30;;;;;;;28.48;15.15;;;;;;;;;;8371920;28;20055;-87
2023/03/25 20:27:37;;;;;;;17.95;8.57;;;;;;;;;;8399831;28;20074;-88
2023/03/25 20:31:42;;;;;;;26.35;12.45;;;;;;;;;;8385346;28;20661;-88
2023/03/25 20:35:47;;;;;;;18.17;8.60;;;;;;;;;;8353086;28;20057;-86
2023/03/25 20:39:53;;;;;;;184.73;49.22;;;;;;;;;;8361890;28;20052;-85
2023/03/25 20:44:00;;;;;;;44.50;16.92;;;;;;;;;;8287920;28;20467;-85
2023/03/25 20:48:08;;;;;;;47.42;15.45;;;;;;;;;;8365799;28;20068;-87
2023/03/25 20:52:14;;;;;;;22.45;9.40;;;;;;;;;;8354619;28;20045;-85
2023/03/25 20:56:18;;;;;;;20.10;8.82;;;;;;;;;;8381888;28;20040;-85
2023/03/25 21:00:24;;;;;;;55.05;19.55;;;;;;;;;;8395574;28;20416;-86
2023/03/25 21:04:28;;;;;;;54.92;23.70;;;;;;;;;;8398854;28;20059;-87
2023/03/25 21:08:34;;;;;;;51.92;19.58;;;;;;;;;;8398657;28;20048;-86
2023/03/25 21:12:38;;;;;;;29.70;10.23;;;;;;;;;;8379455;28;20496;-86
2023/03/25 21:16:44;;;;;;;21.13;9.00;;;;;;;;;;8388795;28;20041;-86
2023/03/25 21:20:49;;;;;;;86.18;25.17;;;;;;;;;;8398652;28;20044;-86
2023/03/25 21:25:00;;;;;;;53.78;16.88;;;;;;;;;;8398194;28;20375;-86
2023/03/25 21:29:06;;;;;;;42.40;15.80;;;;;;;;;;8398331;28;20045;-87
2023/03/25 21:33:14;;;;;;;35.95;12.85;;;;;;;;;;8397994;28;20407;-86
2023/03/25 21:37:18;;;;;;;26.55;11.45;;;;;;;;;;8398002;28;20087;-86
2023/03/25 21:41:21;;;;;;;24.13;9.98;;;;;;;;;;8377335;28;20127;-86
2023/03/25 21:45:24;;;;;;;18.60;9.20;;;;;;;;;;8391174;28;20044;-85
2023/03/25 21:49:31;;;;;;;30.50;13.52;;;;;;;;;;8397323;28;20057;-85
2023/03/25 21:53:43;;;;;;;24.05;10.48;;;;;;;;;;8397459;28;20449;-85
2023/03/25 21:57:46;;;;;;;15.82;7.13;;;;;;;;;;8373589;28;20051;-85
2023/03/25 22:01:51;;;;;;;13.48;7.20;;;;;;;;;;8379578;28;20061;-86
2023/03/25 22:05:56;;;;;;;16.17;7.63;;;;;;;;;;8397193;28;20535;-86
2023/03/25 22:09:59;;;;;;;22.42;9.80;;;;;;;;;;8396819;28;20393;-86
2023/03/25 22:14:04;;;;;;;18.35;9.20;;;;;;;;;;8378984;28;20049;-85
2023/03/25 22:18:07;;;;;;;17.08;8.20;;;;;;;;;;8395967;28;20049;-86
2023/03/25 22:22:17;;;;;;;13.95;7.03;;;;;;;;;;8379744;28;20397;-86
2023/03/25 22:26:21;;;;;;;14.13;7.03;;;;;;;;;;8392995;28;20040;-85
2023/03/25 22:30:25;;;;;;;16.85;6.75;;;;;;;;;;8396010;28;20443;-87
2023/03/25 22:34:29;;;;;;;11.50;6.47;;;;;;;;;;8395529;28;20488;-86
2023/03/25 22:38:33;;;;;;;12.57;6.38;;;;;;;;;;8396190;28;20049;-85
2023/03/25 22:42:37;;;;;;;13.32;6.30;;;;;;;;;;8395857;28;20114;-85
2023/03/25 22:46:40;;;;;;;13.52;6.22;;;;;;;;;;8395708;28;20074;-86
2023/03/25 22:50:43;;;;;;;12.88;5.80;;;;;;;;;;8395504;28;20102;-85
2023/03/25 22:54:47;;;;;;;10.00;5.28;;;;;;;;;;8395977;28;20124;-85
2023/03/25 22:58:53;;;;;;;9.43;4.82;;;;;;;;;;8395250;28;20090;-85
2023/03/25 23:02:56;;;;;;;8.10;4.60;;;;;;;;;;8382325;28;20040;-86
2023/03/25 23:06:59;;;;;;;14.48;5.53;;;;;;;;;;8394714;28;20127;-86
2023/03/25 23:11:08;;;;;;;12.00;5.65;;;;;;;;;;8395500;28;20048;-86
2023/03/25 23:15:12;;;;;;;9.77;5.53;;;;;;;;;;8376964;28;20049;-85
2023/03/25 23:19:15;;;;;;;10.57;5.15;;;;;;;;;;8384404;28;20082;-85
2023/03/25 23:23:21;;;;;;;10.27;4.50;;;;;;;;;;8374041;28;20043;-87
2023/03/25 23:27:27;;;;;;;7.47;4.15;;;;;;;;;;8365179;28;20460;-86
2023/03/25 23:31:33;;;;;;;9.35;4.70;;;;;;;;;;8368052;28;20094;-87
2023/03/25 23:35:36;;;;;;;12.25;5.55;;;;;;;;;;8353724;28;20128;-86
2023/03/25 23:39:39;;;;;;;9.35;5.55;;;;;;;;;;8370057;28;20050;-87
2023/03/25 23:43:43;;;;;;;12.18;5.72;;;;;;;;;;8392808;28;20048;-88
2023/03/25 23:47:47;;;;;;;11.82;4.93;;;;;;;;;;8384014;28;20040;-86
2023/03/25 23:51:51;;;;;;;11.57;4.95;;;;;;;;;;8387647;28;20048;-85
2023/03/25 23:55:55;;;;;;;10.70;5.57;;;;;;;;;;8374349;28;20444;-85
